Wednesday, October 18, 2017, 3:40 AM EDT
Back to Local

KW22, Buckhannon, Upshur County Regional Airport

Location: Buckhannon, WV, United States Lat: 39
Local Time: 3:40 AM EDT ( 7:40 GMT) Lon: -80.267
Time Zone: US/Eastern Elev: 1633 ft

Show me the last for .
Show Decoded

2017-10-18 03:15 METAR KW22 180715Z AUTO 00000KT 10SM CLR 04/04 A3033 RMK AO2 =
2017-10-18 02:55 METAR KW22 180655Z AUTO 00000KT 10SM CLR 04/04 A3033 RMK AO2 =
2017-10-18 02:35 METAR KW22 180635Z AUTO 11004KT 10SM CLR 04/04 A3033 RMK AO2 =
2017-10-18 02:10 METAR KW22 180610Z AUTO 10003KT 10SM CLR 05/04 A3033 RMK AO2 =
2017-10-18 01:55 METAR KW22 180555Z AUTO 00000KT 10SM CLR 05/04 A3032 RMK AO2 =
2017-10-18 01:35 METAR KW22 180535Z AUTO 08003KT 10SM CLR 05/04 A3032 RMK AO2 =
2017-10-18 01:15 METAR KW22 180515Z AUTO 00000KT 10SM CLR 05/04 A3032 RMK AO2 =
2017-10-18 00:55 METAR KW22 180455Z AUTO 00000KT 10SM CLR 06/04 A3032 RMK AO2 =
2017-10-18 00:40 METAR KW22 180440Z AUTO 00000KT 10SM CLR 05/04 A3032 RMK AO2 =
2017-10-18 00:15 METAR KW22 180415Z AUTO 00000KT 10SM CLR 06/04 A3032 RMK AO2 =
2017-10-17 23:55 METAR KW22 180355Z AUTO 00000KT 10SM CLR 06/05 A3032 RMK AO2 =
2017-10-17 23:35 METAR KW22 180335Z AUTO 00000KT 10SM CLR 06/05 A3032 RMK AO2 =
2017-10-17 23:15 METAR KW22 180315Z AUTO 00000KT 10SM CLR 07/04 A3033 RMK AO2 =
2017-10-17 22:55 METAR KW22 180255Z AUTO 00000KT 10SM CLR 07/05 A3033 RMK AO2 =
2017-10-17 22:35 METAR KW22 180235Z AUTO 00000KT 10SM CLR 07/05 A3032 RMK AO2 =
2017-10-17 22:15 METAR KW22 180215Z AUTO 12003KT 10SM CLR 07/05 A3032 RMK AO2 =
2017-10-17 21:55 METAR KW22 180155Z AUTO 00000KT 10SM CLR 07/05 A3032 RMK AO2 =
2017-10-17 21:35 METAR KW22 180135Z AUTO 11003KT 10SM CLR 07/05 A3031 RMK AO2 =
2017-10-17 21:15 METAR KW22 180115Z AUTO 00000KT 10SM CLR 08/05 A3030 RMK AO2 =
2017-10-17 20:55 METAR KW22 180055Z AUTO 00000KT 10SM CLR 09/04 A3030 RMK AO2 =
2017-10-17 20:30 METAR KW22 180030Z AUTO 00000KT 10SM CLR 09/04 A3030 RMK AO2 =
2017-10-17 20:15 METAR KW22 180015Z AUTO 00000KT 8SM CLR 09/04 A3030 RMK AO2 =
2017-10-17 19:55 METAR KW22 172355Z AUTO 00000KT 10SM CLR 10/04 A3030 RMK AO2 =
2017-10-17 19:35 METAR KW22 172335Z AUTO 00000KT 10SM CLR 11/04 A3030 RMK AO2 =
2017-10-17 19:15 METAR KW22 172315Z AUTO 00000KT 10SM CLR 12/03 A3029 RMK AO2 =
2017-10-17 18:55 METAR KW22 172255Z AUTO 00000KT 10SM CLR 12/03 A3029 RMK AO2 =
2017-10-17 18:35 METAR KW22 172235Z AUTO 00000KT 10SM CLR 14/01 A3029 RMK AO2 =
2017-10-17 18:15 METAR KW22 172215Z AUTO 00000KT 10SM CLR 15/01 A3028 RMK AO2 =
2017-10-17 17:55 METAR KW22 172155Z AUTO 00000KT 10SM CLR 15/01 A3028 RMK AO2 =
2017-10-17 17:35 METAR KW22 172135Z AUTO 24003KT 10SM CLR 15/01 A3028 RMK AO2 =
2017-10-17 17:15 METAR KW22 172115Z AUTO 00000KT 10SM CLR 15/02 A3029 RMK AO2 =
2017-10-17 16:55 METAR KW22 172055Z AUTO VRB03KT 10SM CLR 15/02 A3029 RMK AO2 =
2017-10-17 16:35 METAR KW22 172035Z AUTO VRB05KT 10SM CLR 15/02 A3029 RMK AO2 =
2017-10-17 16:15 METAR KW22 172015Z AUTO 28003KT 10SM 15/01 A3030 RMK AO2 =
2017-10-17 15:55 METAR KW22 171955Z AUTO 23004KT 10SM CLR 15/02 A3030 RMK AO2 =
2017-10-17 15:35 METAR KW22 171935Z AUTO 00000KT 10SM CLR 15/01 A3030 RMK AO2 =
2017-10-17 15:15 METAR KW22 171915Z AUTO 00000KT 10SM CLR 15/02 A3030 RMK AO2 =
2017-10-17 14:50 METAR KW22 171850Z AUTO 00000KT 10SM CLR 15/03 A3031 RMK AO2 =
2017-10-17 14:35 METAR KW22 171835Z AUTO 00000KT 10SM CLR 14/03 A3031 RMK AO2 =
2017-10-17 14:15 METAR KW22 171815Z AUTO 20004KT 10SM CLR 14/03 A3032 RMK AO2 =
2017-10-17 13:55 METAR KW22 171755Z AUTO 31004KT 10SM CLR 14/03 A3033 RMK AO2 =
2017-10-17 13:35 METAR KW22 171735Z AUTO 00000KT 10SM CLR 13/02 A3034 RMK AO2 =
2017-10-17 13:15 METAR KW22 171715Z AUTO 25005KT 10SM CLR 14/03 A3035 RMK AO2 =
2017-10-17 12:55 METAR KW22 171655Z AUTO 27004KT 10SM CLR 13/02 A3036 RMK AO2 =
2017-10-17 12:30 METAR KW22 171630Z AUTO 00000KT 10SM CLR 12/02 A3037 RMK AO2 =
2017-10-17 12:15 METAR KW22 171615Z AUTO 00000KT 10SM CLR 12/02 A3038 RMK AO2 =
2017-10-17 11:55 METAR KW22 171555Z AUTO 00000KT 10SM CLR 12/02 A3038 RMK AO2 =
2017-10-17 11:35 METAR KW22 171535Z AUTO 00000KT 10SM CLR 11/03 A3038 RMK AO2 =
2017-10-17 11:15 METAR KW22 171515Z AUTO VRB03KT 10SM CLR 10/04 A3038 RMK AO2 =
2017-10-17 10:55 METAR KW22 171455Z AUTO 19004KT 10SM CLR 10/04 A3039 RMK AO2 =
2017-10-17 10:35 METAR KW22 171435Z AUTO 00000KT 10SM CLR 08/05 A3039 RMK AO2 =
2017-10-17 10:15 METAR KW22 171415Z AUTO 00000KT 10SM CLR 06/06 A3040 RMK AO2 =
2017-10-17 09:55 METAR KW22 171355Z AUTO 00000KT 10SM CLR 05/05 A3039 RMK AO2 =
2017-10-17 09:35 METAR KW22 171335Z AUTO 00000KT 10SM CLR 04/04 A3039 RMK AO2 =
2017-10-17 09:15 METAR KW22 171315Z AUTO 000KT 10SM CLR 03/03 A3039 RMK AO2 =
2017-10-17 08:55 METAR KW22 171255Z AUTO 00000KT 10SM CLR 03/03 A3038 RMK AO2 =
2017-10-17 08:35 METAR KW22 171235Z AUTO 00000KT 1/4SM FG VV002 02/02 A3037 RMK AO2 VIS M1/4V5 =
2017-10-17 08:15 METAR KW22 171215Z AUTO 00000KT 10SM CLR 02/02 A3037 RMK AO2 =
2017-10-17 07:55 METAR KW22 171155Z AUTO 00000KT 1/4SM FG VV002 01/01 A3036 RMK AO2 =
2017-10-17 07:35 METAR KW22 171135Z AUTO 00000KT M1/4SM FG VV000 00/00 A3036 RMK AO2 =
2017-10-17 07:15 METAR KW22 171115Z AUTO 00000KT M1/4SM FG VV000 01/01 A3035 RMK AO2 =
2017-10-17 06:55 METAR KW22 171055Z AUTO 00000KT M1/4SM FG VV000 01/01 A3035 RMK AO2 =
2017-10-17 06:35 METAR KW22 171035Z AUTO 00000KT 1/4SM FG VV002 01/01 A3034 RMK AO2 =
2017-10-17 06:10 METAR KW22 171010Z AUTO 00000KT M1/4SM FG VV000 01/01 A3034 RMK AO2 =
2017-10-17 05:55 METAR KW22 170955Z AUTO 00000KT M1/4SM FG VV000 02/02 A3034 RMK AO2 =
2017-10-17 05:35 METAR KW22 170935Z AUTO 00000KT M1/4SM FG BKN001 02/02 A3033 RMK AO2 =
2017-10-17 05:15 METAR KW22 170915Z AUTO 00000KT M1/4SM FG OVC001 02/02 A3032 RMK AO2 =
2017-10-17 04:55 METAR KW22 170855Z AUTO 00000KT M1/4SM FG OVC001 02/02 A3032 RMK AO2 =
2017-10-17 04:35 METAR KW22 170835Z AUTO 00000KT M1/4SM FG OVC001 02/02 A3031 RMK AO2 =
2017-10-17 04:15 METAR KW22 170815Z AUTO 00000KT M1/4SM FG BKN001 02/02 A3031 RMK AO2 =
2017-10-17 03:55 METAR KW22 170755Z AUTO 00000KT M1/4SM FG VV000 02/02 A3031 RMK AO2 =

Support USWX by starting your Amazon purchase here.